createdAt,value
2023-01-23T00:01:27.548Z,86.00
2023-01-23T00:06:21.851Z,88.70
2023-01-23T00:08:48.374Z,85.30
2023-01-23T00:11:25.027Z,84.80
2023-01-23T00:13:52.405Z,73.50
2023-01-23T00:16:25.199Z,73.00
2023-01-23T00:18:52.944Z,66.90
2023-01-23T00:21:23.258Z,72.00
2023-01-23T00:23:55.477Z,73.20
2023-01-23T00:26:24.993Z,69.10
2023-01-23T00:28:53.934Z,62.40
2023-01-23T00:31:34.967Z,72.40
2023-01-23T00:34:04.671Z,68.40
2023-01-23T00:36:34.669Z,70.80
2023-01-23T00:39:01.839Z,74.40
2023-01-23T00:41:28.993Z,74.20
2023-01-23T00:43:55.540Z,77.20
2023-01-23T00:46:23.208Z,68.40
2023-01-23T00:48:50.771Z,77.10
2023-01-23T00:51:17.511Z,76.60
2023-01-23T00:53:44.965Z,66.30
2023-01-23T00:56:12.446Z,73.00
2023-01-23T00:58:39.097Z,71.80
2023-01-23T01:01:06.132Z,72.70
2023-01-23T01:03:32.632Z,77.30
2023-01-23T01:05:59.412Z,78.50
2023-01-23T01:08:25.919Z,79.20
2023-01-23T01:10:52.564Z,82.10
2023-01-23T01:13:19.565Z,90.10
2023-01-23T01:15:46.383Z,97.60
2023-01-23T01:18:13.072Z,96.20
2023-01-23T01:20:42.143Z,107.20
2023-01-23T01:23:08.905Z,99.00
2023-01-23T01:25:36.488Z,102.50
2023-01-23T01:28:04.106Z,89.60
2023-01-23T01:30:30.764Z,82.60
2023-01-23T01:32:57.716Z,94.20
2023-01-23T01:35:25.178Z,89.00
2023-01-23T01:37:51.828Z,88.80
2023-01-23T01:40:21.919Z,72.50
2023-01-23T01:43:01.389Z,75.90
2023-01-23T01:46:06.027Z,70.70
2023-01-23T01:48:42.395Z,77.10
2023-01-23T01:51:19.916Z,82.50
2023-01-23T01:53:51.000Z,86.20
2023-01-23T01:56:19.206Z,88.60
2023-01-23T01:58:49.351Z,80.20
2023-01-23T02:01:16.522Z,98.40
2023-01-23T02:03:44.939Z,92.80
2023-01-23T02:06:12.271Z,91.50
2023-01-23T02:08:57.484Z,102.60
2023-01-23T02:11:24.624Z,93.60
2023-01-23T02:13:51.192Z,100.30
2023-01-23T02:16:24.571Z,99.10
2023-01-23T02:18:54.790Z,94.90
2023-01-23T02:21:25.233Z,106.90
2023-01-23T02:24:07.214Z,93.10
2023-01-23T02:29:04.509Z,107.80
2023-01-23T02:31:31.231Z,92.30
2023-01-23T02:33:59.334Z,90.60
2023-01-23T02:36:29.351Z,117.50
2023-01-23T02:39:04.084Z,122.10
2023-01-23T02:41:40.784Z,112.60
2023-01-23T02:44:18.557Z,108.80
2023-01-23T02:46:45.427Z,101.90
2023-01-23T02:49:11.885Z,95.80
2023-01-23T02:51:38.678Z,76.50
2023-01-23T02:54:05.430Z,87.50
2023-01-23T02:56:31.884Z,75.90
2023-01-23T02:58:58.689Z,74.60
2023-01-23T03:01:25.957Z,74.90
2023-01-23T03:03:52.391Z,91.20
2023-01-23T03:06:19.631Z,85.90
2023-01-23T03:08:46.064Z,93.90
2023-01-23T03:11:13.396Z,95.10
2023-01-23T03:13:40.338Z,94.10
2023-01-23T03:16:07.417Z,97.40
2023-01-23T03:18:40.082Z,97.50
2023-01-23T03:21:12.178Z,98.70
2023-01-23T03:23:41.749Z,98.40
2023-01-23T03:26:08.292Z,92.90
2023-01-23T03:28:34.843Z,88.00
2023-01-23T03:31:01.385Z,78.20
2023-01-23T03:33:27.917Z,81.40
2023-01-23T03:35:54.559Z,76.00
2023-01-23T03:38:21.107Z,82.40
2023-01-23T03:40:50.418Z,79.40
2023-01-23T03:43:16.847Z,85.10
2023-01-23T03:45:43.334Z,88.70
2023-01-23T03:48:10.047Z,85.60
2023-01-23T03:50:36.579Z,76.20
2023-01-23T03:53:03.039Z,79.10
2023-01-23T03:55:29.487Z,79.40
2023-01-23T03:57:55.999Z,88.60
2023-01-23T04:00:22.687Z,76.20
2023-01-23T04:02:49.658Z,83.30
2023-01-23T04:05:16.417Z,80.40
2023-01-23T04:07:42.882Z,89.60
2023-01-23T04:10:12.705Z,86.40
2023-01-23T04:12:42.848Z,87.40
2023-01-23T04:15:10.586Z,87.50
2023-01-23T04:17:37.546Z,79.80
2023-01-23T04:20:04.701Z,81.40
2023-01-23T04:22:31.116Z,88.20
2023-01-23T04:24:57.571Z,93.70
2023-01-23T04:27:24.117Z,82.00
2023-01-23T04:29:50.559Z,83.00
2023-01-23T04:32:17.400Z,91.10
2023-01-23T04:34:43.864Z,79.20
2023-01-23T04:37:10.295Z,83.20
2023-01-23T04:39:36.826Z,86.00
2023-01-23T04:42:03.468Z,89.50
2023-01-23T04:44:30.459Z,91.30
2023-01-23T04:46:56.885Z,84.00
2023-01-23T04:49:24.705Z,82.40
2023-01-23T04:51:52.991Z,84.30
2023-01-23T04:54:21.091Z,82.90
2023-01-23T04:56:48.708Z,75.50
2023-01-23T04:59:15.969Z,79.50
2023-01-23T05:01:43.064Z,79.30
2023-01-23T05:04:09.490Z,84.30
2023-01-23T05:06:36.248Z,81.60
2023-01-23T05:09:02.761Z,85.90
2023-01-23T05:11:30.349Z,78.80
2023-01-23T05:13:56.920Z,96.20
2023-01-23T05:16:23.410Z,90.30
2023-01-23T05:18:49.988Z,75.70
2023-01-23T05:21:16.419Z,80.20
2023-01-23T05:23:42.838Z,80.20
2023-01-23T05:26:09.414Z,79.40
2023-01-23T05:28:35.954Z,77.80
2023-01-23T05:31:02.550Z,72.80
2023-01-23T05:33:30.745Z,78.30
2023-01-23T05:36:00.947Z,70.10
2023-01-23T05:38:27.533Z,70.00
2023-01-23T05:40:53.957Z,68.40
2023-01-23T05:43:20.403Z,63.30
2023-01-23T05:45:47.069Z,63.60
2023-01-23T05:48:13.513Z,76.50
2023-01-23T05:50:40.648Z,73.60
2023-01-23T05:53:07.154Z,72.10
2023-01-23T05:55:33.741Z,76.00
2023-01-23T05:58:00.279Z,65.80
2023-01-23T06:00:26.918Z,65.70
2023-01-23T06:02:53.383Z,68.70
2023-01-23T06:05:20.346Z,68.30
2023-01-23T06:07:46.861Z,66.50
2023-01-23T06:10:13.635Z,63.30
2023-01-23T06:12:40.046Z,77.30
2023-01-23T06:15:07.182Z,76.40
2023-01-23T06:17:34.094Z,72.90
2023-01-23T06:20:00.891Z,64.10
2023-01-23T06:22:27.428Z,66.30
2023-01-23T06:24:53.972Z,62.50
2023-01-23T06:27:20.509Z,61.00
2023-01-23T06:29:47.352Z,62.90
2023-01-23T06:32:13.829Z,58.30
2023-01-23T06:34:40.265Z,57.30
2023-01-23T06:37:06.836Z,60.90
2023-01-23T06:39:33.413Z,69.70
2023-01-23T06:42:00.149Z,60.10
2023-01-23T06:44:26.689Z,66.20
2023-01-23T06:46:53.433Z,54.90
2023-01-23T06:49:19.983Z,65.10
2023-01-23T06:51:46.402Z,61.00
2023-01-23T06:54:12.871Z,67.90
2023-01-23T06:56:39.409Z,71.40
2023-01-23T06:59:07.153Z,64.10
2023-01-23T07:01:33.690Z,60.90
2023-01-23T07:04:00.853Z,56.30
2023-01-23T07:06:27.390Z,61.50
2023-01-23T07:08:53.929Z,67.60
2023-01-23T07:11:20.335Z,58.70
2023-01-23T07:13:46.731Z,61.20
2023-01-23T07:16:13.270Z,57.60
2023-01-23T07:18:39.916Z,61.80
2023-01-23T07:21:06.759Z,55.20
2023-01-23T07:23:34.520Z,57.70
2023-01-23T07:26:03.495Z,70.50
2023-01-23T07:28:31.245Z,53.00
2023-01-23T07:30:59.044Z,62.10
2023-01-23T07:33:25.737Z,56.00
2023-01-23T07:35:52.294Z,63.80
2023-01-23T07:38:18.737Z,64.70
2023-01-23T07:40:45.336Z,63.30
2023-01-23T07:43:12.117Z,67.70
2023-01-23T07:45:38.732Z,64.00
2023-01-23T07:48:05.174Z,61.20
2023-01-23T07:50:31.665Z,69.60
2023-01-23T07:52:58.183Z,83.10
2023-01-23T07:55:24.745Z,68.80
2023-01-23T07:57:51.186Z,73.50
2023-01-23T08:00:18.621Z,65.10
2023-01-23T08:02:45.297Z,65.30
2023-01-23T08:05:11.835Z,61.20
2023-01-23T08:07:38.275Z,69.40
2023-01-23T08:10:05.636Z,70.00
2023-01-23T08:12:32.171Z,60.20
2023-01-23T08:14:58.708Z,61.90
2023-01-23T08:17:25.142Z,58.60
2023-01-23T08:19:53.535Z,56.70
2023-01-23T08:22:20.098Z,58.60
2023-01-23T08:24:46.611Z,68.60
2023-01-23T08:27:13.373Z,64.50
2023-01-23T08:29:40.131Z,65.30
2023-01-23T08:32:06.667Z,59.20
2023-01-23T08:34:33.525Z,54.30
2023-01-23T08:37:00.075Z,71.50
2023-01-23T08:39:26.536Z,66.50
2023-01-23T08:41:53.085Z,68.70
2023-01-23T08:44:19.657Z,73.00
2023-01-23T08:46:46.561Z,75.30
2023-01-23T08:49:13.663Z,66.00
2023-01-23T08:51:40.151Z,77.10
2023-01-23T08:54:06.617Z,76.50
2023-01-23T08:56:33.055Z,114.80
2023-01-23T08:58:59.630Z,115.40
2023-01-23T09:01:26.994Z,98.40
2023-01-23T09:03:53.829Z,102.70
2023-01-23T09:06:22.513Z,282.20
2023-01-23T09:08:49.156Z,116.10
2023-01-23T09:11:16.413Z,123.90
2023-01-23T09:13:42.955Z,133.60
2023-01-23T09:16:09.944Z,157.60
2023-01-23T09:18:36.962Z,114.90
2023-01-23T09:21:12.871Z,107.90
2023-01-23T09:23:39.394Z,83.60
2023-01-23T09:26:08.043Z,66.90
2023-01-23T09:28:39.105Z,72.60
2023-01-23T09:31:08.217Z,71.90
2023-01-23T09:33:35.872Z,69.00
2023-01-23T09:36:03.951Z,70.90
2023-01-23T09:38:31.313Z,75.00
2023-01-23T09:40:58.879Z,65.20
2023-01-23T09:43:39.946Z,70.80
2023-01-23T09:46:28.300Z,67.30
2023-01-23T09:49:04.057Z,49.60
2023-01-23T09:52:12.471Z,50.20
2023-01-23T09:54:44.398Z,51.40
2023-01-23T09:57:51.604Z,44.40
2023-01-23T10:00:27.145Z,43.00
2023-01-23T10:02:55.102Z,45.10
2023-01-23T10:05:31.469Z,47.80
2023-01-23T10:08:20.743Z,43.50
2023-01-23T10:10:47.247Z,38.30
2023-01-23T10:13:18.503Z,41.20
2023-01-23T10:16:04.593Z,39.90
2023-01-23T10:18:37.104Z,43.10
2023-01-23T10:21:51.451Z,43.70
2023-01-23T10:24:45.708Z,57.20
2023-01-23T10:27:43.512Z,40.30
2023-01-23T10:30:22.185Z,40.50
2023-01-23T10:32:58.411Z,43.40
2023-01-23T10:35:52.737Z,59.90
2023-01-23T10:38:43.394Z,35.00
2023-01-23T10:41:12.010Z,38.20
2023-01-23T10:43:38.829Z,42.80
2023-01-23T10:46:14.442Z,46.20
2023-01-23T10:48:42.878Z,40.30
2023-01-23T10:51:38.456Z,31.10
2023-01-23T10:54:25.995Z,38.30
2023-01-23T10:56:58.308Z,32.20
2023-01-23T10:59:35.610Z,38.10
2023-01-23T11:02:13.296Z,37.10
2023-01-23T11:04:44.041Z,33.00
2023-01-23T11:07:17.240Z,34.00
2023-01-23T11:09:58.707Z,39.60
2023-01-23T11:12:31.111Z,36.50
2023-01-23T11:15:22.670Z,36.80
2023-01-23T11:20:29.727Z,43.00
2023-01-23T11:23:03.916Z,38.90
2023-01-23T11:25:32.273Z,41.30
2023-01-23T11:28:18.543Z,38.90
2023-01-23T11:30:50.392Z,37.70
2023-01-23T11:33:26.994Z,35.40
2023-01-23T11:36:06.979Z,39.50
2023-01-23T11:38:52.568Z,39.80
2023-01-23T11:41:27.051Z,39.40
2023-01-23T11:43:53.683Z,36.90
2023-01-23T11:46:58.110Z,38.60
2023-01-23T11:49:31.974Z,46.00
2023-01-23T11:52:21.288Z,47.00
2023-01-23T11:55:11.355Z,74.70
2023-01-23T11:57:57.833Z,60.20
2023-01-23T12:00:46.887Z,65.50
2023-01-23T12:03:44.506Z,72.20
2023-01-23T12:06:20.631Z,58.70
2023-01-23T12:09:05.790Z,78.80
2023-01-23T12:11:42.199Z,131.90
2023-01-23T12:14:21.125Z,153.40
2023-01-23T12:17:26.167Z,99.90
2023-01-23T12:20:03.048Z,132.80
2023-01-23T12:22:48.981Z,147.50
2023-01-23T12:25:39.031Z,246.10
2023-01-23T12:28:25.005Z,147.60
2023-01-23T12:31:30.112Z,101.50
2023-01-23T12:33:56.844Z,83.70
2023-01-23T12:36:59.482Z,78.80
2023-01-23T12:39:59.786Z,53.50
2023-01-23T12:42:38.976Z,64.50
2023-01-23T12:45:11.299Z,65.10
2023-01-23T12:47:44.631Z,61.30
2023-01-23T12:50:15.657Z,58.40
2023-01-23T12:52:49.474Z,71.20
2023-01-23T12:55:15.902Z,60.90
2023-01-23T12:57:59.854Z,62.70
2023-01-23T13:00:36.259Z,70.00
2023-01-23T13:03:44.999Z,65.30
2023-01-23T13:06:47.450Z,71.30
2023-01-23T13:09:42.477Z,58.90
2023-01-23T13:12:20.984Z,82.70
2023-01-23T13:15:13.886Z,74.10
2023-01-23T13:17:39.930Z,79.50
2023-01-23T13:20:32.521Z,65.20
2023-01-23T13:23:29.373Z,64.60
2023-01-23T13:26:17.564Z,77.60
2023-01-23T13:28:46.769Z,79.00
2023-01-23T13:31:42.365Z,77.50
2023-01-23T13:34:18.164Z,79.60
2023-01-23T13:36:49.321Z,77.60
2023-01-23T13:39:18.747Z,79.40
2023-01-23T13:41:47.120Z,79.80
2023-01-23T13:44:40.394Z,72.60
2023-01-23T14:22:56.680Z,87.60
2023-01-23T14:25:23.704Z,93.60
2023-01-23T14:28:03.004Z,91.80
2023-01-23T14:30:29.544Z,105.20
2023-01-23T14:32:56.407Z,96.20
2023-01-23T14:35:31.597Z,122.40
2023-01-23T14:38:01.660Z,116.90
2023-01-23T14:40:35.144Z,131.60
2023-01-23T14:43:09.091Z,131.30
2023-01-23T14:45:37.751Z,152.50
2023-01-23T14:48:07.721Z,125.40
2023-01-23T14:50:35.002Z,114.70
2023-01-23T14:53:15.196Z,103.00
2023-01-23T14:55:46.073Z,119.40
2023-01-23T14:58:22.349Z,137.90
2023-01-23T15:00:49.940Z,262.50
2023-01-23T15:03:41.136Z,134.90
2023-01-23T15:06:12.406Z,201.50
2023-01-23T15:08:39.371Z,229.10
2023-01-23T15:11:06.603Z,245.10
2023-01-23T15:13:42.324Z,263.60
2023-01-23T15:16:21.463Z,157.00
2023-01-23T15:19:32.732Z,327.20
2023-01-23T15:22:29.895Z,378.10
2023-01-23T15:24:56.963Z,288.10
2023-01-23T15:27:23.452Z,342.90
2023-01-23T15:29:49.892Z,226.30
2023-01-23T15:32:23.528Z,195.30
2023-01-23T15:34:57.002Z,193.40
2023-01-23T15:37:26.254Z,185.50
2023-01-23T15:40:03.422Z,180.60
2023-01-23T15:42:33.516Z,210.60
2023-01-23T15:45:00.629Z,241.20
2023-01-23T15:47:31.341Z,185.50
2023-01-23T15:49:59.437Z,165.80
2023-01-23T15:52:47.502Z,301.80
2023-01-23T15:55:15.300Z,304.00
2023-01-23T15:57:42.581Z,328.10
2023-01-23T16:00:18.053Z,329.60
2023-01-23T16:02:56.243Z,299.50
2023-01-23T16:05:26.058Z,371.50
2023-01-23T16:07:55.139Z,355.70
2023-01-23T16:10:21.475Z,207.10
2023-01-23T16:12:50.776Z,269.70
2023-01-23T16:15:19.826Z,244.40
2023-01-23T16:17:47.400Z,275.40
2023-01-23T16:20:19.604Z,265.30
2023-01-23T16:22:54.764Z,264.50
2023-01-23T16:25:43.345Z,256.20
2023-01-23T16:28:18.671Z,232.60
2023-01-23T16:30:46.447Z,261.80
2023-01-23T16:33:13.201Z,253.50
2023-01-23T16:35:40.944Z,250.20
2023-01-23T16:38:07.817Z,175.90
2023-01-23T16:40:34.754Z,231.50
2023-01-23T16:43:01.798Z,290.10
2023-01-23T16:45:31.194Z,279.50
2023-01-23T16:47:58.016Z,271.30
2023-01-23T16:50:35.275Z,317.30
2023-01-23T16:53:07.506Z,420.20
2023-01-23T16:55:38.483Z,391.30
2023-01-23T16:58:06.958Z,437.80
2023-01-23T17:00:36.068Z,468.80
2023-01-23T17:03:08.047Z,525.80
2023-01-23T17:05:34.491Z,276.20
2023-01-23T17:08:02.281Z,323.40
2023-01-23T17:10:41.173Z,300.00
2023-01-23T17:13:11.771Z,297.80
2023-01-23T17:15:38.840Z,269.10
2023-01-23T17:18:05.775Z,302.40
2023-01-23T17:20:32.824Z,350.10
2023-01-23T17:22:59.359Z,330.40
2023-01-23T17:25:27.037Z,337.00
2023-01-23T17:28:11.659Z,305.40
2023-01-23T17:30:40.378Z,187.00
2023-01-23T17:33:17.150Z,192.00
2023-01-23T17:35:44.649Z,164.80
2023-01-23T17:38:16.542Z,204.00
2023-01-23T17:40:42.993Z,178.20
2023-01-23T17:43:12.366Z,181.80
2023-01-23T17:45:39.983Z,192.60
2023-01-23T17:48:13.008Z,250.10
2023-01-23T17:50:42.696Z,390.00
2023-01-23T17:53:14.686Z,197.50
2023-01-23T17:55:42.534Z,261.40
2023-01-23T17:58:09.940Z,276.00
2023-01-23T18:00:38.508Z,433.80
2023-01-23T18:03:06.782Z,325.30
2023-01-23T18:05:33.395Z,455.60
2023-01-23T18:08:00.045Z,439.80
2023-01-23T18:10:27.309Z,364.40
2023-01-23T18:13:40.537Z,340.40
2023-01-23T18:16:23.205Z,249.60
2023-01-23T18:19:00.591Z,372.30
2023-01-23T18:21:27.904Z,292.00
2023-01-23T18:23:55.194Z,314.70
2023-01-23T18:26:43.108Z,214.40
2023-01-23T18:29:31.667Z,240.10
2023-01-23T18:32:20.320Z,353.20
2023-01-23T18:34:55.459Z,325.20
2023-01-23T18:37:47.389Z,253.30
2023-01-23T18:40:44.921Z,287.10
2023-01-23T18:43:33.127Z,195.90
2023-01-23T18:45:59.933Z,229.80
2023-01-23T18:48:26.699Z,241.80
2023-01-23T18:51:15.054Z,251.10
2023-01-23T18:53:50.675Z,220.90
2023-01-23T18:56:42.748Z,216.80
2023-01-23T18:59:38.422Z,268.40
2023-01-23T19:02:37.265Z,315.90
2023-01-23T19:05:33.723Z,279.00
2023-01-23T19:08:01.389Z,351.00
2023-01-23T19:10:40.137Z,315.70
2023-01-23T19:13:24.971Z,331.10
2023-01-23T19:16:22.355Z,292.30
2023-01-23T19:19:10.731Z,319.70
2023-01-23T19:21:42.459Z,273.90
2023-01-23T19:24:09.506Z,278.50
2023-01-23T19:26:39.137Z,252.30
2023-01-23T19:29:20.995Z,219.90
2023-01-23T19:32:04.133Z,284.60
2023-01-23T19:34:33.299Z,307.10
2023-01-23T19:36:59.757Z,314.10
2023-01-23T19:39:26.320Z,311.90
2023-01-23T19:41:52.849Z,241.20
2023-01-23T19:44:21.149Z,241.40
2023-01-23T19:46:47.718Z,232.20
2023-01-23T19:49:14.299Z,250.20
2023-01-23T19:51:41.811Z,237.10
2023-01-23T19:54:10.999Z,352.20
2023-01-23T19:56:37.541Z,387.40
2023-01-23T19:59:04.024Z,385.10
2023-01-23T20:01:33.687Z,346.20
2023-01-23T20:04:01.043Z,295.70
2023-01-23T20:06:27.908Z,298.60
2023-01-23T20:08:54.467Z,238.50
2023-01-23T20:11:21.179Z,223.80
2023-01-23T20:13:47.629Z,204.30
2023-01-23T20:16:17.625Z,212.10
2023-01-23T20:18:45.376Z,190.70
2023-01-23T20:21:11.949Z,194.60
2023-01-23T20:23:38.574Z,194.60
2023-01-23T20:26:05.200Z,192.00
2023-01-23T20:28:32.136Z,198.20
2023-01-23T20:31:10.833Z,212.10
2023-01-23T20:33:38.373Z,197.70
2023-01-23T20:36:09.140Z,248.80
2023-01-23T20:38:35.537Z,250.10
2023-01-23T20:41:10.793Z,201.60
2023-01-23T20:43:37.453Z,277.00
2023-01-23T20:46:07.992Z,279.80
2023-01-23T20:48:38.977Z,299.00
2023-01-23T20:51:08.684Z,318.90
2023-01-23T20:53:37.531Z,193.30
2023-01-23T20:56:08.276Z,219.10
2023-01-23T20:58:36.878Z,358.80
2023-01-23T21:01:03.830Z,357.20
2023-01-23T21:03:30.338Z,395.50
2023-01-23T21:05:57.443Z,356.20
2023-01-23T21:08:24.035Z,367.30
2023-01-23T21:10:50.715Z,373.80
2023-01-23T21:13:17.315Z,335.50
2023-01-23T21:15:44.397Z,305.50
2023-01-23T21:18:11.010Z,353.00
2023-01-23T21:20:39.312Z,291.80
2023-01-23T21:23:06.534Z,214.20
2023-01-23T21:25:35.509Z,197.20
2023-01-23T21:28:02.085Z,299.50
2023-01-23T21:30:28.578Z,293.10
2023-01-23T21:32:55.268Z,319.20
2023-01-23T21:35:21.978Z,318.30
2023-01-23T21:37:48.741Z,396.40
2023-01-23T21:40:15.430Z,357.50
2023-01-23T21:42:42.038Z,350.50
2023-01-23T21:45:09.081Z,290.50
2023-01-23T21:47:35.637Z,222.40
2023-01-23T21:50:02.178Z,264.50
2023-01-23T21:52:28.568Z,298.10
2023-01-23T21:54:56.727Z,270.70
2023-01-23T21:57:23.373Z,234.50
2023-01-23T21:59:49.869Z,233.10
2023-01-23T22:02:16.347Z,211.30
2023-01-23T22:04:42.789Z,333.30
2023-01-23T22:07:09.391Z,260.50
2023-01-23T22:09:35.854Z,240.00
2023-01-23T22:12:02.369Z,256.70
2023-01-23T22:14:29.008Z,194.00
2023-01-23T22:16:55.547Z,296.10
2023-01-23T22:19:25.527Z,261.60
2023-01-23T22:21:55.793Z,330.90
2023-01-23T22:24:22.509Z,219.10
2023-01-23T22:26:49.600Z,336.10
2023-01-23T22:29:16.066Z,348.60
2023-01-23T22:31:43.133Z,360.30
2023-01-23T22:34:09.933Z,294.20
2023-01-23T22:36:36.779Z,280.50
2023-01-23T22:39:03.407Z,237.90
2023-01-23T22:41:29.841Z,217.40
2023-01-23T22:43:57.479Z,193.30
2023-01-23T22:46:23.977Z,218.00
2023-01-23T22:48:51.014Z,212.60
2023-01-23T22:51:27.964Z,185.50
2023-01-23T22:53:55.815Z,206.00
2023-01-23T22:56:23.708Z,189.50
2023-01-23T22:58:51.931Z,192.40
2023-01-23T23:01:19.559Z,176.60
2023-01-23T23:03:46.710Z,163.60
2023-01-23T23:06:16.029Z,191.00
2023-01-23T23:08:45.122Z,168.30
2023-01-23T23:11:19.896Z,180.80
2023-01-23T23:13:46.941Z,172.20
2023-01-23T23:16:22.605Z,179.50
2023-01-23T23:18:52.308Z,194.20
2023-01-23T23:21:22.096Z,173.40
2023-01-23T23:23:48.809Z,187.40
2023-01-23T23:26:16.024Z,203.30
2023-01-23T23:28:42.988Z,199.10
2023-01-23T23:31:10.576Z,160.30
2023-01-23T23:33:37.676Z,157.30
2023-01-23T23:36:05.066Z,164.50
2023-01-23T23:38:31.685Z,143.00
2023-01-23T23:41:01.932Z,148.30
2023-01-23T23:43:28.845Z,141.40
2023-01-23T23:45:57.506Z,140.70
2023-01-23T23:48:25.343Z,144.70
2023-01-23T23:50:52.063Z,147.30
2023-01-23T23:53:18.806Z,149.90
2023-01-23T23:55:45.875Z,147.00
2023-01-23T23:58:13.010Z,141.00
